Terminal Aerodrome Forecast
Issued by NWS

Home | Current Version | Previous Version | Text Only | Print | Product List | Glossary On
Versions: 1 2 3 4 5 6 7 8 9 10 11 12 13 14 15 16 17
000
FTAK31 PAJN 172320
TAFAGY
TAF
PAGY 172320Z 1800/1824 21015G22KT P6SM VCSH BKN080
     FM180500 20010KT P6SM VCSH OVC040
     FM181000 06005KT P6SM -SHRA OVC040
     FM181300 03006KT P6SM -SHRA OVC050
     FM181800 03008G15KT 2SM -RA BR OVC035
      AMD LTD TO CLD VIS AND WIND=

USA.gov is the U.S. government's official web portal to all federal, state and local government web resources and services.